Time;durP1;ratioP1;P1;durP2;ratioP2;P2;SDS_P1;SDS_P2;PMS_P1;PMS_P2;Temp;Humidity;BMP_temperature;BMP_pressure;BME280_temperature;BME280_humidity;BME280_pressure;Samples;Min_cycle;Max_cycle;Signal;HPM_P1;HPM_P2
2023/09/13 04:43:23;;;;;;;3.63;1.80;;;;;;;;;;5090601;27;20403;-82
2023/09/13 04:45:48;;;;;;;0.75;0.70;;;;;;;;;;5107916;28;20074;-83
2023/09/13 04:48:14;;;;;;;0.40;0.40;;;;;;;;;;5085636;28;20320;-81
2023/09/13 04:50:39;;;;;;;1.27;0.90;;;;;;;;;;5103014;28;20024;-82
2023/09/13 04:53:06;;;;;;;2.03;1.20;;;;;;;;;;5105133;28;20028;-81
2023/09/13 04:55:32;;;;;;;2.40;1.02;;;;;;;;;;5103532;28;20023;-84
2023/09/13 04:58:28;;;;;;;0.50;0.50;;;;;;;;;;5110897;28;20092;-83
2023/09/13 05:00:56;;;;;;;3.92;1.20;;;;;;;;;;5100429;28;20457;-83
2023/09/13 05:03:25;;;;;;;3.40;1.27;;;;;;;;;;5089878;28;20070;-83
2023/09/13 05:05:50;;;;;;;1.17;1.05;;;;;;;;;;5086411;28;20032;-82
2023/09/13 05:08:16;;;;;;;2.28;1.33;;;;;;;;;;5104848;28;20093;-81
2023/09/13 05:10:43;;;;;;;2.20;1.42;;;;;;;;;;5085271;28;20020;-83
2023/09/13 05:13:09;;;;;;;3.40;1.33;;;;;;;;;;5086009;28;20603;-83
2023/09/13 05:15:42;;;;;;;1.73;1.15;;;;;;;;;;5103827;28;20094;-83
2023/09/13 05:18:07;;;;;;;1.98;1.13;;;;;;;;;;5086089;28;20073;-85
2023/09/13 05:20:33;;;;;;;0.90;0.60;;;;;;;;;;5105520;28;20499;-83
2023/09/13 05:22:58;;;;;;;1.20;0.95;;;;;;;;;;5099660;28;20069;-83
2023/09/13 05:25:24;;;;;;;2.63;0.85;;;;;;;;;;5086353;28;20471;-84
2023/09/13 05:27:49;;;;;;;2.47;1.35;;;;;;;;;;5103781;28;20034;-84
2023/09/13 05:30:15;;;;;;;1.58;1.08;;;;;;;;;;5105160;28;20413;-85
2023/09/13 05:32:40;;;;;;;2.22;1.05;;;;;;;;;;5106193;28;20024;-86
2023/09/13 05:35:06;;;;;;;1.67;1.08;;;;;;;;;;5085783;28;20030;-83
2023/09/13 05:37:31;;;;;;;0.55;0.55;;;;;;;;;;5089573;28;20019;-84
2023/09/13 05:39:58;;;;;;;2.75;1.70;;;;;;;;;;5101181;28;20059;-84
2023/09/13 05:42:23;;;;;;;2.28;1.40;;;;;;;;;;5092259;28;20049;-84
2023/09/13 05:44:49;;;;;;;1.52;1.40;;;;;;;;;;5096528;28;20046;-83
2023/09/13 05:47:14;;;;;;;4.45;1.58;;;;;;;;;;5068305;28;20464;-82
2023/09/13 05:49:40;;;;;;;1.58;1.25;;;;;;;;;;5098174;28;20028;-82
2023/09/13 05:52:05;;;;;;;3.20;1.70;;;;;;;;;;5091124;28;20391;-81
2023/09/13 05:54:31;;;;;;;1.38;0.80;;;;;;;;;;5055076;28;20086;-84
2023/09/13 05:56:56;;;;;;;1.40;0.73;;;;;;;;;;5082380;28;20033;-83
2023/09/13 05:59:22;;;;;;;2.78;1.38;;;;;;;;;;5067888;28;20024;-82
2023/09/13 06:01:48;;;;;;;0.68;0.60;;;;;;;;;;5073738;28;20020;-84
2023/09/13 06:04:13;;;;;;;1.55;1.15;;;;;;;;;;5071908;28;20024;-83
2023/09/13 06:06:39;;;;;;;2.72;1.27;;;;;;;;;;5061003;28;20532;-84
2023/09/13 06:09:04;;;;;;;2.10;1.33;;;;;;;;;;5066834;28;20025;-84
2023/09/13 06:11:30;;;;;;;1.77;1.25;;;;;;;;;;5061929;28;20037;-85
2023/09/13 06:13:56;;;;;;;1.20;1.10;;;;;;;;;;5065659;28;20434;-84
2023/09/13 06:16:22;;;;;;;1.45;0.90;;;;;;;;;;5052019;28;20107;-83
2023/09/13 06:18:49;;;;;;;3.78;1.73;;;;;;;;;;5076709;28;20365;-82
2023/09/13 06:21:14;;;;;;;1.55;1.25;;;;;;;;;;5054276;28;20028;-84
2023/09/13 06:23:40;;;;;;;2.08;1.20;;;;;;;;;;5068285;28;20027;-83
2023/09/13 06:26:06;;;;;;;1.85;1.25;;;;;;;;;;5071363;28;20555;-82
2023/09/13 06:28:32;;;;;;;2.47;1.60;;;;;;;;;;5065061;28;20031;-81
2023/09/13 06:30:58;;;;;;;1.70;1.38;;;;;;;;;;5056427;28;20032;-81
2023/09/13 06:33:25;;;;;;;2.10;1.45;;;;;;;;;;5069998;28;20025;-82
2023/09/13 06:35:51;;;;;;;1.58;1.20;;;;;;;;;;5061161;28;20036;-82
2023/09/13 06:38:17;;;;;;;1.92;1.33;;;;;;;;;;5055122;28;20047;-81
2023/09/13 06:40:43;;;;;;;1.77;1.23;;;;;;;;;;5049322;28;20033;-80
2023/09/13 06:43:12;;;;;;;1.40;1.30;;;;;;;;;;5086348;28;20115;-80
2023/09/13 06:45:37;;;;;;;0.95;0.77;;;;;;;;;;5083664;28;20135;-81
2023/09/13 06:48:04;;;;;;;2.72;1.90;;;;;;;;;;5088646;28;20111;-80
2023/09/13 06:50:29;;;;;;;2.85;1.45;;;;;;;;;;5070753;28;20376;-81
2023/09/13 06:52:55;;;;;;;1.15;1.05;;;;;;;;;;5079773;28;20024;-81
2023/09/13 06:55:20;;;;;;;1.92;1.08;;;;;;;;;;5066833;28;20112;-79
2023/09/13 06:57:48;;;;;;;1.55;1.27;;;;;;;;;;5091682;28;20055;-82
2023/09/13 07:00:14;;;;;;;1.75;1.25;;;;;;;;;;5070020;28;20034;-81
2023/09/13 07:02:40;;;;;;;2.38;1.40;;;;;;;;;;5069139;28;20028;-82
2023/09/13 07:05:05;;;;;;;1.15;0.93;;;;;;;;;;5072791;28;20125;-81
2023/09/13 07:07:31;;;;;;;2.67;1.52;;;;;;;;;;5092270;28;20032;-81
2023/09/13 07:09:56;;;;;;;1.30;0.90;;;;;;;;;;5071752;28;20050;-81
2023/09/13 07:12:22;;;;;;;3.35;1.30;;;;;;;;;;5092218;28;20024;-81
2023/09/13 07:14:47;;;;;;;1.88;1.10;;;;;;;;;;5073422;28;20052;-81
2023/09/13 07:17:17;;;;;;;1.98;1.02;;;;;;;;;;5069012;28;20107;-81
2023/09/13 07:19:43;;;;;;;1.25;0.90;;;;;;;;;;5070354;28;20028;-80
2023/09/13 07:22:09;;;;;;;0.80;0.80;;;;;;;;;;5087330;28;20770;-81
2023/09/13 07:24:34;;;;;;;3.40;2.33;;;;;;;;;;5091436;28;20160;-79
2023/09/13 07:27:00;;;;;;;1.70;1.52;;;;;;;;;;5090715;28;20106;-80
2023/09/13 07:29:26;;;;;;;1.20;1.08;;;;;;;;;;5091930;28;20718;-79
2023/09/13 07:31:51;;;;;;;1.40;1.27;;;;;;;;;;5072859;28;20036;-79
2023/09/13 07:34:17;;;;;;;1.77;0.88;;;;;;;;;;5089861;28;20032;-80
2023/09/13 07:36:42;;;;;;;4.82;1.48;;;;;;;;;;5070995;28;20056;-80
2023/09/13 07:39:09;;;;;;;0.93;0.65;;;;;;;;;;5091402;28;20035;-80
2023/09/13 07:41:35;;;;;;;3.58;1.45;;;;;;;;;;5090007;28;20115;-80
2023/09/13 07:44:00;;;;;;;2.10;1.38;;;;;;;;;;5087209;28;20499;-80
2023/09/13 07:46:26;;;;;;;2.00;1.30;;;;;;;;;;5091125;28;20028;-80
2023/09/13 07:48:51;;;;;;;1.60;1.10;;;;;;;;;;5072991;28;20020;-84
2023/09/13 07:51:16;;;;;;;1.38;1.23;;;;;;;;;;5070200;28;20392;-81
2023/09/13 07:53:42;;;;;;;1.45;0.85;;;;;;;;;;5089676;28;20107;-81
2023/09/13 07:56:08;;;;;;;4.28;1.00;;;;;;;;;;5083682;28;20055;-78
2023/09/13 07:58:33;;;;;;;1.30;1.10;;;;;;;;;;5084744;28;20024;-80
2023/09/13 08:00:58;;;;;;;1.65;1.10;;;;;;;;;;5067390;28;20099;-80
2023/09/13 08:03:24;;;;;;;4.47;1.15;;;;;;;;;;5068444;28;20032;-81
2023/09/13 08:05:50;;;;;;;0.90;0.70;;;;;;;;;;5087314;28;20118;-80
2023/09/13 08:08:22;;;;;;;1.40;0.90;;;;;;;;;;5091526;28;20050;-80
2023/09/13 08:10:52;;;;;;;2.35;1.13;;;;;;;;;;5072403;28;20028;-79
2023/09/13 08:13:21;;;;;;;5.70;1.95;;;;;;;;;;5090920;28;20476;-80
2023/09/13 08:15:46;;;;;;;0.80;0.80;;;;;;;;;;5089199;28;20433;-79
2023/09/13 08:18:12;;;;;;;1.75;1.10;;;;;;;;;;5089364;28;20032;-80
2023/09/13 08:20:37;;;;;;;1.30;1.10;;;;;;;;;;5090630;28;20024;-79
2023/09/13 08:23:03;;;;;;;2.38;1.48;;;;;;;;;;5090618;28;20028;-81
2023/09/13 08:25:28;;;;;;;1.60;1.38;;;;;;;;;;5073860;28;20375;-80
2023/09/13 08:27:54;;;;;;;4.35;1.80;;;;;;;;;;5090897;28;20027;-79
2023/09/13 08:30:19;;;;;;;3.03;1.60;;;;;;;;;;5090322;28;20024;-79
2023/09/13 08:32:45;;;;;;;2.00;1.17;;;;;;;;;;5090552;28;20024;-79
2023/09/13 08:35:10;;;;;;;1.77;1.48;;;;;;;;;;5088789;28;20035;-80
2023/09/13 08:37:35;;;;;;;1.63;1.13;;;;;;;;;;5086581;28;20028;-80
2023/09/13 08:40:01;;;;;;;1.40;1.02;;;;;;;;;;5072465;28;20061;-78
2023/09/13 08:42:28;;;;;;;1.13;1.00;;;;;;;;;;5090848;28;20044;-80
2023/09/13 08:44:54;;;;;;;3.22;1.55;;;;;;;;;;5071713;28;20028;-79
2023/09/13 08:47:22;;;;;;;2.65;1.48;;;;;;;;;;5090581;28;20488;-81
2023/09/13 08:49:49;;;;;;;2.17;1.33;;;;;;;;;;5085613;28;20028;-79
2023/09/13 08:52:16;;;;;;;1.55;1.17;;;;;;;;;;5072114;28;20024;-79
2023/09/13 08:54:43;;;;;;;1.35;1.10;;;;;;;;;;5071929;28;20028;-80
2023/09/13 08:57:09;;;;;;;2.33;1.55;;;;;;;;;;5090428;28;20057;-78
2023/09/13 08:59:34;;;;;;;2.47;1.08;;;;;;;;;;5090320;28;20028;-80
2023/09/13 09:02:02;;;;;;;3.10;0.80;;;;;;;;;;5083737;28;20434;-81
2023/09/13 09:04:28;;;;;;;4.88;1.55;;;;;;;;;;5086166;28;20475;-83
2023/09/13 09:06:54;;;;;;;2.78;1.27;;;;;;;;;;5070104;28;20070;-82
2023/09/13 09:09:21;;;;;;;1.50;1.10;;;;;;;;;;5090598;28;20028;-82
2023/09/13 09:11:56;;;;;;;2.78;1.30;;;;;;;;;;5091171;28;20024;-82
2023/09/13 09:14:26;;;;;;;1.98;1.10;;;;;;;;;;5065396;28;20444;-81
2023/09/13 09:16:54;;;;;;;1.38;1.13;;;;;;;;;;5070184;28;20036;-82
2023/09/13 09:19:20;;;;;;;1.63;1.23;;;;;;;;;;5087332;28;20032;-82
2023/09/13 09:21:46;;;;;;;0.70;0.70;;;;;;;;;;5091422;28;20020;-82
2023/09/13 09:24:11;;;;;;;1.90;1.20;;;;;;;;;;5072819;28;20734;-81
2023/09/13 09:26:36;;;;;;;2.00;1.40;;;;;;;;;;5090682;28;20028;-81
2023/09/13 09:29:13;;;;;;;2.17;1.70;;;;;;;;;;5088993;28;20016;-82
2023/09/13 09:31:39;;;;;;;0.70;0.70;;;;;;;;;;5068853;28;20028;-83
2023/09/13 09:34:05;;;;;;;1.58;0.98;;;;;;;;;;5089127;28;20038;-82
2023/09/13 09:36:34;;;;;;;1.80;1.02;;;;;;;;;;5070890;28;20073;-79
2023/09/13 09:39:04;;;;;;;3.90;1.23;;;;;;;;;;5072693;28;20039;-80
2023/09/13 09:41:36;;;;;;;1.25;0.90;;;;;;;;;;5089810;28;20045;-85
2023/09/13 09:44:03;;;;;;;1.92;1.50;;;;;;;;;;5049921;28;20926;-82
2023/09/13 09:46:30;;;;;;;2.13;1.45;;;;;;;;;;5076165;28;20024;-84
2023/09/13 09:48:57;;;;;;;3.28;0.82;;;;;;;;;;5073432;28;20454;-82
2023/09/13 09:51:22;;;;;;;2.20;1.10;;;;;;;;;;5057663;28;20080;-84
2023/09/13 09:53:48;;;;;;;1.83;1.27;;;;;;;;;;5060232;28;20039;-82
2023/09/13 09:56:17;;;;;;;3.08;1.70;;;;;;;;;;5080950;28;20028;-83
2023/09/13 09:58:45;;;;;;;1.60;1.00;;;;;;;;;;5073789;28;20495;-84
2023/09/13 10:01:16;;;;;;;1.02;1.00;;;;;;;;;;5084377;28;20035;-84
2023/09/13 10:03:42;;;;;;;1.33;0.93;;;;;;;;;;5068302;28;20020;-81
2023/09/13 10:06:15;;;;;;;2.17;1.42;;;;;;;;;;5077520;28;20058;-87
2023/09/13 10:08:45;;;;;;;2.05;0.98;;;;;;;;;;5091765;28;20050;-83
2023/09/13 10:11:16;;;;;;;2.95;1.95;;;;;;;;;;5074290;28;20046;-86
2023/09/13 10:13:45;;;;;;;1.42;1.08;;;;;;;;;;5070795;28;20020;-84
2023/09/13 10:16:11;;;;;;;1.02;1.00;;;;;;;;;;5072434;28;20032;-85
2023/09/13 10:18:45;;;;;;;2.65;1.30;;;;;;;;;;5088156;28;20067;-84
2023/09/13 10:21:14;;;;;;;1.27;1.17;;;;;;;;;;5055560;28;20391;-84
2023/09/13 10:23:41;;;;;;;4.63;1.73;;;;;;;;;;5081043;28;20091;-85
2023/09/13 10:26:09;;;;;;;4.00;1.60;;;;;;;;;;5079969;28;20056;-84
2023/09/13 10:28:41;;;;;;;2.08;1.15;;;;;;;;;;5078938;28;20469;-83
2023/09/13 10:31:19;;;;;;;1.50;1.17;;;;;;;;;;5065426;28;20530;-85
2023/09/13 10:33:52;;;;;;;2.55;1.02;;;;;;;;;;5082898;28;20020;-84
2023/09/13 10:36:31;;;;;;;4.35;1.40;;;;;;;;;;5072267;28;20044;-81
2023/09/13 10:39:09;;;;;;;;;;;;;;;;;;5075879;28;20107;-79
2023/09/13 10:42:06;;;;;;;1.95;1.08;;;;;;;;;;5076644;28;19919;-82
2023/09/13 10:44:34;;;;;;;1.65;0.90;;;;;;;;;;5067822;28;20895;-80
2023/09/13 10:47:00;;;;;;;0.95;0.90;;;;;;;;;;5088101;28;20028;-80
2023/09/13 10:49:25;;;;;;;1.60;1.05;;;;;;;;;;5090979;28;20035;-84
2023/09/13 10:51:54;;;;;;;1.95;1.20;;;;;;;;;;5091447;28;20538;-81
2023/09/13 10:54:21;;;;;;;2.20;1.40;;;;;;;;;;5093816;28;20113;-80
2023/09/13 10:56:48;;;;;;;2.78;1.10;;;;;;;;;;5092318;28;20027;-81
2023/09/13 10:59:20;;;;;;;1.42;1.10;;;;;;;;;;5092479;28;20032;-81
2023/09/13 11:01:46;;;;;;;2.35;1.20;;;;;;;;;;5092644;28;20020;-81
2023/09/13 11:04:23;;;;;;;2.35;1.35;;;;;;;;;;5071494;28;20122;-82
2023/09/13 11:06:50;;;;;;;2.97;1.33;;;;;;;;;;5070157;28;20028;-81
2023/09/13 11:09:18;;;;;;;1.42;1.08;;;;;;;;;;5088098;28;20047;-80
2023/09/13 11:11:48;;;;;;;2.05;1.20;;;;;;;;;;5085691;28;20115;-83
2023/09/13 11:14:23;;;;;;;1.55;1.45;;;;;;;;;;5066678;28;20111;-81
2023/09/13 11:16:48;;;;;;;1.23;1.02;;;;;;;;;;5089364;28;20038;-81
2023/09/13 11:19:16;;;;;;;2.28;1.27;;;;;;;;;;5090717;28;20032;-81
2023/09/13 11:21:46;;;;;;;2.28;1.30;;;;;;;;;;5090341;28;20101;-81
2023/09/13 11:24:11;;;;;;;;;;;;;;;;;;5086830;28;20048;-83
2023/09/13 11:26:45;;;;;;;1.70;1.00;;;;;;;;;;5069172;28;20394;-81
2023/09/13 11:29:23;;;;;;;1.63;1.15;;;;;;;;;;5084747;28;20039;-82
2023/09/13 11:32:04;;;;;;;2.92;1.58;;;;;;;;;;5062483;28;20471;-80
2023/09/13 11:34:34;;;;;;;1.48;1.17;;;;;;;;;;5089279;28;20035;-82
2023/09/13 11:37:04;;;;;;;1.75;0.95;;;;;;;;;;5073978;28;20032;-80
2023/09/13 11:39:29;;;;;;;;;;;;;;;;;;5089057;28;20024;-81
2023/09/13 11:41:55;;;;;;;2.15;1.13;;;;;;;;;;5087942;28;19930;-82
2023/09/13 11:44:23;;;;;;;1.52;1.33;;;;;;;;;;5087802;28;20036;-81
2023/09/13 11:46:52;;;;;;;1.92;1.20;;;;;;;;;;5071995;28;20035;-80
2023/09/13 11:49:23;;;;;;;;;;;;;;;;;;5087560;28;20036;-80
2023/09/13 11:52:06;;;;;;;1.95;1.45;;;;;;;;;;5072627;28;20006;-80
2023/09/13 11:54:51;;;;;;;1.90;1.10;;;;;;;;;;5089943;28;20402;-80
2023/09/13 11:57:16;;;;;;;2.08;1.27;;;;;;;;;;5075432;28;20044;-83
2023/09/13 11:59:42;;;;;;;2.42;1.35;;;;;;;;;;5072550;28;20149;-82
2023/09/13 12:02:11;;;;;;;1.23;1.10;;;;;;;;;;5074269;28;20059;-81
2023/09/13 12:04:37;;;;;;;6.78;1.10;;;;;;;;;;5073421;28;20036;-81
2023/09/13 12:07:09;;;;;;;2.20;1.25;;;;;;;;;;5072795;28;20066;-81
2023/09/13 12:09:35;;;;;;;2.20;1.00;;;;;;;;;;5072373;28;20042;-82
2023/09/13 12:12:04;;;;;;;2.38;1.67;;;;;;;;;;5075264;28;20028;-80
2023/09/13 12:14:31;;;;;;;6.40;1.50;;;;;;;;;;5072567;28;20063;-81
2023/09/13 12:16:57;;;;;;;1.90;1.20;;;;;;;;;;5074514;28;20035;-82
2023/09/13 12:19:24;;;;;;;3.03;1.40;;;;;;;;;;5093765;28;20399;-83
2023/09/13 12:21:49;;;;;;;1.60;1.17;;;;;;;;;;5071168;28;20452;-82
2023/09/13 12:24:19;;;;;;;2.92;1.67;;;;;;;;;;5090446;28;20168;-81
2023/09/13 12:26:45;;;;;;;2.53;1.48;;;;;;;;;;5088024;28;20028;-81
2023/09/13 12:29:10;;;;;;;1.92;1.30;;;;;;;;;;5070466;28;20040;-81
2023/09/13 12:31:36;;;;;;;1.38;1.08;;;;;;;;;;5067385;28;20464;-82
2023/09/13 12:34:02;;;;;;;2.33;1.83;;;;;;;;;;5089691;28;20043;-82
2023/09/13 12:36:28;;;;;;;6.22;1.80;;;;;;;;;;5078314;28;20033;-81
2023/09/13 12:38:55;;;;;;;1.33;1.00;;;;;;;;;;5064779;28;20719;-82
2023/09/13 12:41:32;;;;;;;2.85;1.27;;;;;;;;;;5083268;28;20047;-79
2023/09/13 12:43:59;;;;;;;1.38;1.05;;;;;;;;;;5085118;28;20107;-83
2023/09/13 12:46:27;;;;;;;13.85;9.50;;;;;;;;;;5082339;28;20076;-79
2023/09/13 12:48:55;;;;;;;1.77;1.30;;;;;;;;;;5083316;28;20028;-79
2023/09/13 12:51:22;;;;;;;1.83;1.15;;;;;;;;;;5089838;28;20028;-79
2023/09/13 12:53:52;;;;;;;1.85;1.20;;;;;;;;;;5088821;28;20031;-79
2023/09/13 12:56:17;;;;;;;;;;;;;;;;;;5088311;28;20035;-79
2023/09/13 12:58:51;;;;;;;3.20;1.20;;;;;;;;;;5089784;28;19920;-80
2023/09/13 13:01:17;;;;;;;9.02;1.52;;;;;;;;;;5090150;28;20032;-79
2023/09/13 13:04:06;;;;;;;1.90;0.90;;;;;;;;;;5074130;28;20490;-79
2023/09/13 13:06:36;;;;;;;3.35;1.52;;;;;;;;;;5073604;28;20087;-79
2023/09/13 13:09:08;;;;;;;3.40;1.35;;;;;;;;;;5076286;28;20060;-79
2023/09/13 13:11:40;;;;;;;2.15;1.38;;;;;;;;;;5093411;28;20024;-79
2023/09/13 13:14:23;;;;;;;2.00;1.45;;;;;;;;;;5092998;28;20043;-79
2023/09/13 13:17:06;;;;;;;1.85;0.93;;;;;;;;;;5094402;28;20020;-79
2023/09/13 13:19:37;;;;;;;1.73;1.20;;;;;;;;;;5094530;28;20035;-80
2023/09/13 13:22:05;;;;;;;4.05;1.65;;;;;;;;;;5075399;28;20016;-80
2023/09/13 13:24:30;;;;;;;2.28;1.33;;;;;;;;;;5094286;28;20166;-80
2023/09/13 13:26:56;;;;;;;2.72;1.40;;;;;;;;;;5089812;28;20112;-78
2023/09/13 13:29:22;;;;;;;1.50;0.95;;;;;;;;;;5092162;28;20536;-78
2023/09/13 13:31:48;;;;;;;1.77;1.10;;;;;;;;;;5075476;28;20028;-78
2023/09/13 13:34:13;;;;;;;2.38;1.42;;;;;;;;;;5075177;28;20062;-79
2023/09/13 13:36:40;;;;;;;1.77;1.45;;;;;;;;;;5081987;28;20064;-79
2023/09/13 13:39:06;;;;;;;1.95;1.40;;;;;;;;;;5087425;28;20025;-79
2023/09/13 13:41:32;;;;;;;2.38;1.38;;;;;;;;;;5090928;28;20059;-79
2023/09/13 13:43:59;;;;;;;1.35;0.95;;;;;;;;;;5089429;28;20087;-83
2023/09/13 13:46:25;;;;;;;3.22;1.42;;;;;;;;;;5090541;28;20016;-81
2023/09/13 13:48:51;;;;;;;3.22;1.02;;;;;;;;;;5070745;28;20560;-81
2023/09/13 13:51:18;;;;;;;2.38;1.40;;;;;;;;;;5063759;28;20028;-81
2023/09/13 13:53:43;;;;;;;2.85;1.42;;;;;;;;;;5065090;28;20028;-80
2023/09/13 13:56:09;;;;;;;2.20;0.95;;;;;;;;;;5067626;28;20039;-81
2023/09/13 13:58:34;;;;;;;2.30;1.20;;;;;;;;;;5072092;28;20103;-80
2023/09/13 14:01:03;;;;;;;2.03;1.38;;;;;;;;;;5088276;28;20078;-83
2023/09/13 14:03:28;;;;;;;1.92;1.23;;;;;;;;;;5066230;28;20024;-80
2023/09/13 14:05:54;;;;;;;1.88;1.45;;;;;;;;;;5068607;28;20032;-80
2023/09/13 14:08:21;;;;;;;2.00;1.13;;;;;;;;;;5088942;28;20024;-80
2023/09/13 14:10:47;;;;;;;6.25;1.52;;;;;;;;;;5086459;28;20059;-82
2023/09/13 14:13:18;;;;;;;1.92;1.30;;;;;;;;;;5082836;28;20055;-80
2023/09/13 14:15:44;;;;;;;3.45;1.48;;;;;;;;;;5081611;28;20035;-80
2023/09/13 14:18:09;;;;;;;1.27;1.00;;;;;;;;;;5078224;28;20032;-80
2023/09/13 14:20:41;;;;;;;1.33;1.15;;;;;;;;;;5089476;28;20052;-80
2023/09/13 14:23:11;;;;;;;2.00;1.40;;;;;;;;;;5074381;28;20023;-79
2023/09/13 14:25:37;;;;;;;3.00;1.35;;;;;;;;;;5087076;28;20024;-79
2023/09/13 14:28:03;;;;;;;1.75;1.20;;;;;;;;;;5090407;28;20141;-78
2023/09/13 14:30:29;;;;;;;2.40;1.42;;;;;;;;;;5086917;28;20433;-79
2023/09/13 14:32:54;;;;;;;3.65;1.83;;;;;;;;;;5086083;28;20020;-79
2023/09/13 14:35:20;;;;;;;1.42;1.30;;;;;;;;;;5072596;28;20043;-79
2023/09/13 14:37:46;;;;;;;3.38;1.10;;;;;;;;;;5092014;28;20061;-79
2023/09/13 14:40:11;;;;;;;1.92;1.13;;;;;;;;;;5082869;28;20043;-79
2023/09/13 14:42:37;;;;;;;1.75;1.30;;;;;;;;;;5080166;28;20041;-78
2023/09/13 14:45:04;;;;;;;3.17;1.45;;;;;;;;;;5081639;28;20032;-78
2023/09/13 14:47:30;;;;;;;7.18;2.60;;;;;;;;;;5086284;28;20475;-78
2023/09/13 14:49:55;;;;;;;2.67;2.05;;;;;;;;;;5071928;28;20036;-79
2023/09/13 14:52:21;;;;;;;2.45;1.65;;;;;;;;;;5085208;28;20035;-78
2023/09/13 14:54:46;;;;;;;2.05;1.48;;;;;;;;;;5082713;28;20035;-79
2023/09/13 14:57:11;;;;;;;2.13;1.52;;;;;;;;;;5087802;28;20036;-78
2023/09/13 14:59:37;;;;;;;3.05;1.65;;;;;;;;;;5086359;28;20039;-78
2023/09/13 15:02:03;;;;;;;6.93;2.17;;;;;;;;;;5070244;28;20391;-79
2023/09/13 15:04:29;;;;;;;2.10;1.25;;;;;;;;;;5089020;28;20389;-78
2023/09/13 15:06:54;;;;;;;1.40;1.25;;;;;;;;;;5084339;28;20020;-78
2023/09/13 15:09:20;;;;;;;2.58;1.50;;;;;;;;;;5089268;28;20028;-78
2023/09/13 15:11:45;;;;;;;2.20;1.10;;;;;;;;;;5090208;28;20028;-78
2023/09/13 15:14:12;;;;;;;4.47;2.20;;;;;;;;;;5086590;28;20471;-78
2023/09/13 15:16:42;;;;;;;3.47;1.73;;;;;;;;;;5088928;28;20042;-80
2023/09/13 15:19:08;;;;;;;1.88;1.55;;;;;;;;;;5090304;28;20051;-79
2023/09/13 15:21:34;;;;;;;2.75;1.70;;;;;;;;;;5068008;28;20055;-79
2023/09/13 15:24:00;;;;;;;2.17;1.48;;;;;;;;;;5091309;28;20028;-79
2023/09/13 15:26:26;;;;;;;2.20;1.23;;;;;;;;;;5087786;28;20047;-79
2023/09/13 15:28:55;;;;;;;1.50;1.00;;;;;;;;;;5069079;28;20534;-79
2023/09/13 15:31:27;;;;;;;1.67;1.15;;;;;;;;;;5088586;28;20376;-79
2023/09/13 15:33:52;;;;;;;2.38;1.50;;;;;;;;;;5081392;28;20032;-79
2023/09/13 15:36:18;;;;;;;2.30;1.42;;;;;;;;;;5087603;28;20032;-79
2023/09/13 15:38:44;;;;;;;6.25;1.60;;;;;;;;;;5085116;28;20479;-79
2023/09/13 15:41:11;;;;;;;2.00;1.30;;;;;;;;;;5081446;28;20040;-80
2023/09/13 15:43:36;;;;;;;1.63;1.25;;;;;;;;;;5070408;28;20050;-78
2023/09/13 15:46:02;;;;;;;3.25;1.42;;;;;;;;;;5068451;28;20472;-79
2023/09/13 15:48:27;;;;;;;1.42;1.17;;;;;;;;;;5086036;28;20026;-79
2023/09/13 15:50:53;;;;;;;2.67;1.10;;;;;;;;;;5066980;28;20383;-79
2023/09/13 15:53:18;;;;;;;2.13;1.30;;;;;;;;;;5072998;28;20032;-79
2023/09/13 15:55:44;;;;;;;2.28;1.33;;;;;;;;;;5086402;28;20042;-79
2023/09/13 15:58:09;;;;;;;1.40;0.90;;;;;;;;;;5090816;28;20027;-79
2023/09/13 16:00:35;;;;;;;2.42;1.30;;;;;;;;;;5072951;28;20452;-79
2023/09/13 16:03:00;;;;;;;2.65;1.23;;;;;;;;;;5085502;28;20031;-79
2023/09/13 16:05:26;;;;;;;1.42;1.17;;;;;;;;;;5090304;28;20031;-80
2023/09/13 16:07:52;;;;;;;1.73;1.08;;;;;;;;;;5090814;28;20551;-79
2023/09/13 16:10:22;;;;;;;2.15;1.77;;;;;;;;;;5068885;28;20089;-78
2023/09/13 16:12:48;;;;;;;2.00;1.15;;;;;;;;;;5090047;28;20115;-79
2023/09/13 16:15:14;;;;;;;0.98;0.77;;;;;;;;;;5065659;28;20040;-78
2023/09/13 16:17:40;;;;;;;2.17;1.02;;;;;;;;;;5090740;28;20024;-80
2023/09/13 16:20:06;;;;;;;1.50;1.15;;;;;;;;;;5066948;28;20024;-79
2023/09/13 16:22:31;;;;;;;1.75;1.08;;;;;;;;;;5083784;28;20445;-79
2023/09/13 16:24:59;;;;;;;1.73;1.30;;;;;;;;;;5065050;28;20062;-80
2023/09/13 16:27:24;;;;;;;1.73;1.20;;;;;;;;;;5087302;28;20102;-79
2023/09/13 16:29:50;;;;;;;1.45;1.27;;;;;;;;;;5072197;28;20107;-79
2023/09/13 16:32:17;;;;;;;0.95;0.80;;;;;;;;;;5086296;28;20055;-80
2023/09/13 16:34:43;;;;;;;1.42;1.10;;;;;;;;;;5068321;28;20494;-79
2023/09/13 16:37:08;;;;;;;1.80;1.25;;;;;;;;;;5080430;28;20095;-79
